sensor_id;sensor_type;location;lat;lon;timestamp;pressure;altitude;pressure_sealevel;temperature;humidity
10510;BME280;5303;53.266;10.410;2023-02-28T00:00:00;102945.19;;;0.41;100.00
10510;BME280;5303;53.266;10.410;2023-02-28T00:02:25;102951.56;;;0.39;100.00
10510;BME280;5303;53.266;10.410;2023-02-28T00:04:51;102945.31;;;0.38;100.00
10510;BME280;5303;53.266;10.410;2023-02-28T00:07:26;102950.78;;;0.35;100.00
10510;BME280;5303;53.266;10.410;2023-02-28T00:09:52;102945.56;;;0.32;100.00
10510;BME280;5303;53.266;10.410;2023-02-28T00:12:17;102942.75;;;0.35;100.00
10510;BME280;5303;53.266;10.410;2023-02-28T00:14:42;102943.53;;;0.39;100.00
10510;BME280;5303;53.266;10.410;2023-02-28T00:17:08;102956.28;;;0.32;100.00
10510;BME280;5303;53.266;10.410;2023-02-28T00:19:33;102952.78;;;0.30;100.00
10510;BME280;5303;53.266;10.410;2023-02-28T00:21:58;102952.03;;;0.25;100.00
10510;BME280;5303;53.266;10.410;2023-02-28T00:24:23;102956.72;;;0.20;100.00
10510;BME280;5303;53.266;10.410;2023-02-28T00:26:49;102958.66;;;0.15;100.00
10510;BME280;5303;53.266;10.410;2023-02-28T00:29:14;102957.06;;;0.09;100.00
10510;BME280;5303;53.266;10.410;2023-02-28T00:31:39;102957.25;;;0.05;100.00
10510;BME280;5303;53.266;10.410;2023-02-28T00:34:04;102952.84;;;0.02;100.00
10510;BME280;5303;53.266;10.410;2023-02-28T00:36:30;102956.72;;;0.20;100.00
10510;BME280;5303;53.266;10.410;2023-02-28T00:38:55;102950.56;;;0.41;100.00
10510;BME280;5303;53.266;10.410;2023-02-28T00:41:20;102956.06;;;0.13;100.00
10510;BME280;5303;53.266;10.410;2023-02-28T00:43:45;102952.47;;;0.13;100.00
10510;BME280;5303;53.266;10.410;2023-02-28T00:46:12;102951.47;;;0.17;100.00
10510;BME280;5303;53.266;10.410;2023-02-28T00:48:37;102955.97;;;0.15;100.00
10510;BME280;5303;53.266;10.410;2023-02-28T00:51:03;102965.88;;;0.13;100.00
10510;BME280;5303;53.266;10.410;2023-02-28T00:53:29;102965.75;;;0.16;100.00
10510;BME280;5303;53.266;10.410;2023-02-28T00:55:54;102966.88;;;0.10;100.00
10510;BME280;5303;53.266;10.410;2023-02-28T00:58:19;102969.59;;;0.09;100.00
10510;BME280;5303;53.266;10.410;2023-02-28T01:00:45;102964.31;;;0.07;100.00
10510;BME280;5303;53.266;10.410;2023-02-28T01:03:14;102973.50;;;-0.02;100.00
10510;BME280;5303;53.266;10.410;2023-02-28T01:05:39;102970.16;;;-0.08;100.00
10510;BME280;5303;53.266;10.410;2023-02-28T01:08:07;102970.38;;;-0.14;100.00
10510;BME280;5303;53.266;10.410;2023-02-28T01:10:32;102970.53;;;0.08;100.00
10510;BME280;5303;53.266;10.410;2023-02-28T01:12:57;102977.38;;;-0.10;100.00
10510;BME280;5303;53.266;10.410;2023-02-28T01:15:23;102977.25;;;-0.06;100.00
10510;BME280;5303;53.266;10.410;2023-02-28T01:17:48;102974.06;;;0.08;100.00
10510;BME280;5303;53.266;10.410;2023-02-28T01:20:14;102973.31;;;0.05;100.00
10510;BME280;5303;53.266;10.410;2023-02-28T01:22:39;102972.22;;;0.10;100.00
10510;BME280;5303;53.266;10.410;2023-02-28T01:25:05;102973.50;;;0.25;100.00
10510;BME280;5303;53.266;10.410;2023-02-28T01:27:30;102975.97;;;0.31;100.00
10510;BME280;5303;53.266;10.410;2023-02-28T01:29:55;102967.78;;;0.36;100.00
10510;BME280;5303;53.266;10.410;2023-02-28T01:32:21;102972.38;;;0.32;100.00
10510;BME280;5303;53.266;10.410;2023-02-28T01:34:46;102967.78;;;0.36;100.00
10510;BME280;5303;53.266;10.410;2023-02-28T01:37:11;102968.31;;;0.45;100.00
10510;BME280;5303;53.266;10.410;2023-02-28T01:39:36;102963.41;;;0.32;100.00
10510;BME280;5303;53.266;10.410;2023-02-28T01:42:02;102959.84;;;0.33;100.00
10510;BME280;5303;53.266;10.410;2023-02-28T01:45:08;102955.38;;;0.32;100.00
10510;BME280;5303;53.266;10.410;2023-02-28T01:47:42;102953.53;;;0.34;100.00
10510;BME280;5303;53.266;10.410;2023-02-28T01:50:15;102955.34;;;0.33;100.00
10510;BME280;5303;53.266;10.410;2023-02-28T01:52:43;102947.53;;;0.27;100.00
10510;BME280;5303;53.266;10.410;2023-02-28T01:55:10;102947.72;;;0.21;100.00
10510;BME280;5303;53.266;10.410;2023-02-28T01:57:43;102956.06;;;0.13;100.00
10510;BME280;5303;53.266;10.410;2023-02-28T02:00:14;102948.22;;;0.07;100.00
10510;BME280;5303;53.266;10.410;2023-02-28T02:02:46;102951.88;;;0.05;100.00
10510;BME280;5303;53.266;10.410;2023-02-28T02:05:16;102952.47;;;-0.12;100.00
10510;BME280;5303;53.266;10.410;2023-02-28T02:07:43;102947.25;;;-0.17;100.00
10510;BME280;5303;53.266;10.410;2023-02-28T02:10:13;102951.63;;;-0.14;100.00
10510;BME280;5303;53.266;10.410;2023-02-28T02:13:01;102949.91;;;-0.17;100.00
10510;BME280;5303;53.266;10.410;2023-02-28T02:15:41;102948.22;;;-0.19;100.00
10510;BME280;5303;53.266;10.410;2023-02-28T02:18:39;102947.59;;;-0.28;100.00
10510;BME280;5303;53.266;10.410;2023-02-28T02:21:42;102949.41;;;-0.28;100.00
10510;BME280;5303;53.266;10.410;2023-02-28T02:27:20;102952.69;;;-0.47;100.00
10510;BME280;5303;53.266;10.410;2023-02-28T02:30:07;102958.25;;;-0.53;100.00
10510;BME280;5303;53.266;10.410;2023-02-28T02:35:16;102961.44;;;-0.69;100.00
10510;BME280;5303;53.266;10.410;2023-02-28T02:37:51;102954.94;;;-0.61;100.00
10510;BME280;5303;53.266;10.410;2023-02-28T02:40:20;102964.63;;;-0.57;100.00
10510;BME280;5303;53.266;10.410;2023-02-28T02:42:52;102961.69;;;-0.49;100.00
10510;BME280;5303;53.266;10.410;2023-02-28T02:45:33;102964.34;;;-0.48;100.00
10510;BME280;5303;53.266;10.410;2023-02-28T02:48:06;102962.56;;;-0.49;100.00
10510;BME280;5303;53.266;10.410;2023-02-28T02:50:37;102952.00;;;-0.53;100.00
10510;BME280;5303;53.266;10.410;2023-02-28T02:53:04;102956.03;;;-0.68;100.00
10510;BME280;5303;53.266;10.410;2023-02-28T02:55:34;102949.88;;;-0.70;100.00
10510;BME280;5303;53.266;10.410;2023-02-28T02:58:04;102953.44;;;-0.69;100.00
10510;BME280;5303;53.266;10.410;2023-02-28T03:00:40;102948.06;;;-0.69;100.00
10510;BME280;5303;53.266;10.410;2023-02-28T03:03:08;102951.72;;;-0.72;100.00
10510;BME280;5303;53.266;10.410;2023-02-28T03:05:41;102946.44;;;-0.74;100.00
10510;BME280;5303;53.266;10.410;2023-02-28T03:08:07;102951.72;;;-0.72;100.00
10510;BME280;5303;53.266;10.410;2023-02-28T03:10:39;102947.53;;;-0.81;100.00
10510;BME280;5303;53.266;10.410;2023-02-28T03:13:33;102954.59;;;-0.78;100.00
10510;BME280;5303;53.266;10.410;2023-02-28T03:16:13;102956.28;;;-0.76;100.00
10510;BME280;5303;53.266;10.410;2023-02-28T03:21:36;102951.81;;;-0.75;100.00
10510;BME280;5303;53.266;10.410;2023-02-28T03:27:10;102969.16;;;-0.88;100.00
10510;BME280;5303;53.266;10.410;2023-02-28T03:29:46;102959.22;;;-0.83;100.00
10510;BME280;5303;53.266;10.410;2023-02-28T03:32:24;102964.50;;;-0.82;100.00
10510;BME280;5303;53.266;10.410;2023-02-28T03:34:59;102967.03;;;-0.77;100.00
10510;BME280;5303;53.266;10.410;2023-02-28T03:37:29;102967.88;;;-0.75;100.00
10510;BME280;5303;53.266;10.410;2023-02-28T03:40:00;102964.56;;;-0.83;100.00
10510;BME280;5303;53.266;10.410;2023-02-28T03:42:29;102963.81;;;-0.88;100.00
10510;BME280;5303;53.266;10.410;2023-02-28T03:44:57;102960.31;;;-0.90;100.00
10510;BME280;5303;53.266;10.410;2023-02-28T03:47:31;102969.25;;;-0.91;100.00
10510;BME280;5303;53.266;10.410;2023-02-28T03:50:03;102966.50;;;-0.88;100.00
10510;BME280;5303;53.266;10.410;2023-02-28T03:52:34;102964.69;;;-0.88;100.00
10510;BME280;5303;53.266;10.410;2023-02-28T03:55:05;102960.97;;;-0.82;100.00
10510;BME280;5303;53.266;10.410;2023-02-28T03:57:37;102971.78;;;-0.87;100.00
10510;BME280;5303;53.266;10.410;2023-02-28T04:00:29;102981.09;;;-1.00;100.00
10510;BME280;5303;53.266;10.410;2023-02-28T04:02:56;102977.56;;;-1.01;100.00
10510;BME280;5303;53.266;10.410;2023-02-28T04:05:22;102974.00;;;-1.01;100.00
10510;BME280;5303;53.266;10.410;2023-02-28T04:07:47;102975.75;;;-1.00;100.00
10510;BME280;5303;53.266;10.410;2023-02-28T04:10:15;102971.50;;;-1.07;100.00
10510;BME280;5303;53.266;10.410;2023-02-28T04:12:41;102981.25;;;-1.05;100.00
10510;BME280;5303;53.266;10.410;2023-02-28T04:15:07;102975.75;;;-1.00;100.00
10510;BME280;5303;53.266;10.410;2023-02-28T04:17:32;102972.97;;;-0.96;100.00
10510;BME280;5303;53.266;10.410;2023-02-28T04:19:57;102977.38;;;-0.95;100.00
10510;BME280;5303;53.266;10.410;2023-02-28T04:22:23;102977.28;;;-0.91;100.00
10510;BME280;5303;53.266;10.410;2023-02-28T04:24:51;102976.34;;;-0.90;100.00
10510;BME280;5303;53.266;10.410;2023-02-28T04:27:18;102970.03;;;-0.88;100.00
10510;BME280;5303;53.266;10.410;2023-02-28T04:29:44;102975.28;;;-0.83;100.00
10510;BME280;5303;53.266;10.410;2023-02-28T04:32:09;102975.31;;;-0.85;100.00
10510;BME280;5303;53.266;10.410;2023-02-28T04:34:35;102984.25;;;-0.86;100.00
10510;BME280;5303;53.266;10.410;2023-02-28T04:37:00;102971.19;;;-0.97;100.00
10510;BME280;5303;53.266;10.410;2023-02-28T04:39:26;102971.34;;;-1.01;100.00
10510;BME280;5303;53.266;10.410;2023-02-28T04:41:51;102980.19;;;-0.99;100.00
10510;BME280;5303;53.266;10.410;2023-02-28T04:44:17;102987.53;;;-1.06;100.00
10510;BME280;5303;53.266;10.410;2023-02-28T04:46:43;102982.09;;;-1.03;100.00
10510;BME280;5303;53.266;10.410;2023-02-28T04:49:11;102984.78;;;-1.03;100.00
10510;BME280;5303;53.266;10.410;2023-02-28T04:51:37;102987.53;;;-1.06;100.00
10510;BME280;5303;53.266;10.410;2023-02-28T04:54:02;102981.16;;;-1.02;100.00
10510;BME280;5303;53.266;10.410;2023-02-28T04:56:27;102982.09;;;-1.03;100.00
10510;BME280;5303;53.266;10.410;2023-02-28T04:58:53;102981.06;;;-0.99;100.00
10510;BME280;5303;53.266;10.410;2023-02-28T05:01:26;102972.34;;;-1.05;100.00
10510;BME280;5303;53.266;10.410;2023-02-28T05:03:53;102981.25;;;-1.05;100.00
10510;BME280;5303;53.266;10.410;2023-02-28T05:06:20;102987.53;;;-1.06;100.00
10510;BME280;5303;53.266;10.410;2023-02-28T05:08:45;102991.03;;;-1.04;100.00
10510;BME280;5303;53.266;10.410;2023-02-28T05:11:25;102987.72;;;-1.12;100.00
10510;BME280;5303;53.266;10.410;2023-02-28T05:13:52;102981.56;;;-1.15;100.00
10510;BME280;5303;53.266;10.410;2023-02-28T05:16:18;102991.38;;;-1.16;100.00
10510;BME280;5303;53.266;10.410;2023-02-28T05:18:43;102986.03;;;-1.16;100.00
10510;BME280;5303;53.266;10.410;2023-02-28T05:21:30;102989.94;;;-1.28;100.00
10510;BME280;5303;53.266;10.410;2023-02-28T05:23:57;102991.53;;;-1.22;100.00
10510;BME280;5303;53.266;10.410;2023-02-28T05:26:23;102994.19;;;-1.21;100.00
10510;BME280;5303;53.266;10.410;2023-02-28T05:28:49;102990.56;;;-1.18;100.00
10510;BME280;5303;53.266;10.410;2023-02-28T05:31:14;102996.78;;;-1.18;100.00
10510;BME280;5303;53.266;10.410;2023-02-28T05:33:40;102997.09;;;-1.28;100.00
10510;BME280;5303;53.266;10.410;2023-02-28T05:36:06;102999.75;;;-1.28;100.00
10510;BME280;5303;53.266;10.410;2023-02-28T05:38:31;102994.44;;;-1.30;100.00
10510;BME280;5303;53.266;10.410;2023-02-28T05:40:57;102993.56;;;-1.30;100.00
10510;BME280;5303;53.266;10.410;2023-02-28T05:43:22;102993.41;;;-1.24;100.00
10510;BME280;5303;53.266;10.410;2023-02-28T05:45:48;102998.66;;;-1.21;100.00
10510;BME280;5303;53.266;10.410;2023-02-28T05:48:13;102996.88;;;-1.22;100.00
10510;BME280;5303;53.266;10.410;2023-02-28T05:50:39;102997.09;;;-1.28;100.00
10510;BME280;5303;53.266;10.410;2023-02-28T05:53:04;102995.22;;;-1.25;100.00
10510;BME280;5303;53.266;10.410;2023-02-28T05:55:30;102994.19;;;-1.21;100.00
10510;BME280;5303;53.266;10.410;2023-02-28T05:57:55;103000.38;;;-1.19;100.00
10510;BME280;5303;53.266;10.410;2023-02-28T06:00:21;102998.66;;;-1.21;100.00
10510;BME280;5303;53.266;10.410;2023-02-28T06:02:46;103001.16;;;-1.15;100.00
10510;BME280;5303;53.266;10.410;2023-02-28T06:05:14;103003.84;;;-1.15;100.00
10510;BME280;5303;53.266;10.410;2023-02-28T06:07:40;103013.66;;;-1.15;100.00
10510;BME280;5303;53.266;10.410;2023-02-28T06:10:05;103007.50;;;-1.19;100.00
10510;BME280;5303;53.266;10.410;2023-02-28T06:12:31;103007.50;;;-1.19;100.00
10510;BME280;5303;53.266;10.410;2023-02-28T06:14:56;103006.47;;;-1.13;100.00
10510;BME280;5303;53.266;10.410;2023-02-28T06:17:21;103012.75;;;-1.16;100.00
10510;BME280;5303;53.266;10.410;2023-02-28T06:19:47;103009.28;;;-1.18;100.00
10510;BME280;5303;53.266;10.410;2023-02-28T06:22:13;103008.41;;;-1.19;100.00
10510;BME280;5303;53.266;10.410;2023-02-28T06:24:38;103012.59;;;-1.10;100.00
10510;BME280;5303;53.266;10.410;2023-02-28T06:27:03;103019.97;;;-1.18;100.00
10510;BME280;5303;53.266;10.410;2023-02-28T06:29:35;103017.38;;;-1.21;100.00
10510;BME280;5303;53.266;10.410;2023-02-28T06:32:01;103023.38;;;-1.13;100.00
10510;BME280;5303;53.266;10.410;2023-02-28T06:34:26;103031.47;;;-1.16;100.00
10510;BME280;5303;53.266;10.410;2023-02-28T06:36:52;103036.19;;;-1.24;100.00
10510;BME280;5303;53.266;10.410;2023-02-28T06:39:18;103026.22;;;-1.19;100.00
10510;BME280;5303;53.266;10.410;2023-02-28T06:41:43;103035.06;;;-1.15;100.00
10510;BME280;5303;53.266;10.410;2023-02-28T06:44:15;103033.09;;;-1.09;100.00
10510;BME280;5303;53.266;10.410;2023-02-28T06:46:42;103037.41;;;-1.05;100.00
10510;BME280;5303;53.266;10.410;2023-02-28T06:49:08;103043.41;;;-0.97;100.00
10510;BME280;5303;53.266;10.410;2023-02-28T06:51:36;103036.38;;;-0.99;100.00
10510;BME280;5303;53.266;10.410;2023-02-28T06:54:02;103046.94;;;-0.95;100.00
10510;BME280;5303;53.266;10.410;2023-02-28T06:56:27;103041.31;;;-0.85;100.00
10510;BME280;5303;53.266;10.410;2023-02-28T06:58:52;103043.50;;;-1.00;100.00
10510;BME280;5303;53.266;10.410;2023-02-28T07:01:18;103050.78;;;-1.05;100.00
10510;BME280;5303;53.266;10.410;2023-02-28T07:03:44;103051.66;;;-1.04;100.00
10510;BME280;5303;53.266;10.410;2023-02-28T07:06:10;103054.19;;;-1.00;100.00
10510;BME280;5303;53.266;10.410;2023-02-28T07:08:35;103056.50;;;-0.86;100.00
10510;BME280;5303;53.266;10.410;2023-02-28T07:11:01;103051.88;;;-0.81;100.00
10510;BME280;5303;53.266;10.410;2023-02-28T07:13:27;103050.28;;;-0.86;100.00
10510;BME280;5303;53.266;10.410;2023-02-28T07:18:19;103048.66;;;-0.62;100.00
10510;BME280;5303;53.266;10.410;2023-02-28T07:20:44;103045.53;;;-0.49;100.00
10510;BME280;5303;53.266;10.410;2023-02-28T07:23:09;103049.94;;;-0.46;100.00
10510;BME280;5303;53.266;10.410;2023-02-28T07:25:35;103049.75;;;-0.40;100.00
10510;BME280;5303;53.266;10.410;2023-02-28T07:28:00;103055.16;;;-0.41;100.00
10510;BME280;5303;53.266;10.410;2023-02-28T07:30:26;103056.72;;;-0.34;100.00
10510;BME280;5303;53.266;10.410;2023-02-28T07:32:51;103049.50;;;-0.32;100.00
10510;BME280;5303;53.266;10.410;2023-02-28T07:35:16;103048.41;;;-0.25;100.00
10510;BME280;5303;53.266;10.410;2023-02-28T07:37:42;103050.09;;;-0.22;100.00
10510;BME280;5303;53.266;10.410;2023-02-28T07:40:10;103053.50;;;-0.17;100.00
10510;BME280;5303;53.266;10.410;2023-02-28T07:42:40;103048.81;;;-0.11;100.00
10510;BME280;5303;53.266;10.410;2023-02-28T07:45:06;103058.56;;;-0.08;100.00
10510;BME280;5303;53.266;10.410;2023-02-28T07:47:32;103041.38;;;-0.01;100.00
10510;BME280;5303;53.266;10.410;2023-02-28T07:49:57;103053.59;;;0.08;100.00
10510;BME280;5303;53.266;10.410;2023-02-28T07:52:23;103046.22;;;0.14;100.00
10510;BME280;5303;53.266;10.410;2023-02-28T07:54:49;103047.84;;;0.20;100.00
10510;BME280;5303;53.266;10.410;2023-02-28T07:57:15;103050.13;;;0.31;100.00
10510;BME280;5303;53.266;10.410;2023-02-28T07:59:40;103042.94;;;0.33;100.00
10510;BME280;5303;53.266;10.410;2023-02-28T08:02:06;103048.13;;;0.37;100.00
10510;BME280;5303;53.266;10.410;2023-02-28T08:04:32;103047.81;;;0.46;100.00
10510;BME280;5303;53.266;10.410;2023-02-28T08:06:58;103051.25;;;0.50;100.00
10510;BME280;5303;53.266;10.410;2023-02-28T08:09:23;103050.84;;;0.62;100.00
10510;BME280;5303;53.266;10.410;2023-02-28T08:11:49;103047.88;;;0.70;100.00
10510;BME280;5303;53.266;10.410;2023-02-28T08:14:14;103044.28;;;0.71;100.00
10510;BME280;5303;53.266;10.410;2023-02-28T08:16:39;103044.81;;;0.81;100.00
10510;BME280;5303;53.266;10.410;2023-02-28T08:19:05;103040.22;;;0.84;100.00
10510;BME280;5303;53.266;10.410;2023-02-28T08:21:31;103051.63;;;0.89;100.00
10510;BME280;5303;53.266;10.410;2023-02-28T08:23:57;103048.72;;;0.96;100.00
10510;BME280;5303;53.266;10.410;2023-02-28T08:26:23;103050.97;;;1.08;100.00
10510;BME280;5303;53.266;10.410;2023-02-28T08:28:48;103051.91;;;1.07;100.00
10510;BME280;5303;53.266;10.410;2023-02-28T08:31:15;103049.22;;;1.07;100.00
10510;BME280;5303;53.266;10.410;2023-02-28T08:33:42;103053.53;;;1.11;100.00
10510;BME280;5303;53.266;10.410;2023-02-28T08:36:08;103051.56;;;1.16;100.00
10510;BME280;5303;53.266;10.410;2023-02-28T08:38:34;103056.63;;;1.24;100.00
10510;BME280;5303;53.266;10.410;2023-02-28T08:41:02;103052.78;;;1.31;100.00
10510;BME280;5303;53.266;10.410;2023-02-28T08:43:28;103056.06;;;1.39;100.00
10510;BME280;5303;53.266;10.410;2023-02-28T08:45:55;103050.47;;;1.45;100.00
10510;BME280;5303;53.266;10.410;2023-02-28T08:48:24;103060.06;;;1.51;100.00
10510;BME280;5303;53.266;10.410;2023-02-28T08:51:02;103053.44;;;1.61;100.00
10510;BME280;5303;53.266;10.410;2023-02-28T08:53:27;103045.06;;;1.69;100.00
10510;BME280;5303;53.266;10.410;2023-02-28T08:56:04;103048.94;;;1.83;100.00
10510;BME280;5303;53.266;10.410;2023-02-28T08:58:29;103053.75;;;1.97;100.00
10510;BME280;5303;53.266;10.410;2023-02-28T09:00:55;103055.69;;;2.16;100.00
10510;BME280;5303;53.266;10.410;2023-02-28T09:03:21;103055.94;;;2.31;100.00
10510;BME280;5303;53.266;10.410;2023-02-28T09:06:00;103052.31;;;2.53;100.00
10510;BME280;5303;53.266;10.410;2023-02-28T09:08:28;103057.53;;;2.56;100.00
10510;BME280;5303;53.266;10.410;2023-02-28T09:10:54;103057.22;;;2.64;100.00
10510;BME280;5303;53.266;10.410;2023-02-28T09:13:22;103055.34;;;2.66;100.00
10510;BME280;5303;53.266;10.410;2023-02-28T09:15:47;103052.47;;;2.70;100.00
10510;BME280;5303;53.266;10.410;2023-02-28T09:18:13;103050.50;;;2.74;100.00
10510;BME280;5303;53.266;10.410;2023-02-28T09:20:39;103054.25;;;2.90;100.00
10510;BME280;5303;53.266;10.410;2023-02-28T09:23:06;103054.53;;;3.23;100.00
10510;BME280;5303;53.266;10.410;2023-02-28T09:25:31;103057.31;;;3.22;100.00
10510;BME280;5303;53.266;10.410;2023-02-28T09:28:02;103058.69;;;3.31;100.00
10510;BME280;5303;53.266;10.410;2023-02-28T09:30:27;103052.31;;;3.52;100.00
10510;BME280;5303;53.266;10.410;2023-02-28T09:32:53;103054.22;;;3.50;100.00
10510;BME280;5303;53.266;10.410;2023-02-28T09:35:23;103056.25;;;3.64;100.00
10510;BME280;5303;53.266;10.410;2023-02-28T09:37:51;103049.75;;;3.87;100.00
10510;BME280;5303;53.266;10.410;2023-02-28T09:40:20;103050.25;;;3.95;100.00
10510;BME280;5303;53.266;10.410;2023-02-28T09:42:49;103052.28;;;3.90;100.00
10510;BME280;5303;53.266;10.410;2023-02-28T09:45:26;103049.28;;;3.96;100.00
10510;BME280;5303;53.266;10.410;2023-02-28T09:47:56;103051.13;;;3.95;100.00
10510;BME280;5303;53.266;10.410;2023-02-28T09:52:54;103046.75;;;3.93;100.00
10510;BME280;5303;53.266;10.410;2023-02-28T09:55:39;103051.91;;;3.97;100.00
10510;BME280;5303;53.266;10.410;2023-02-28T09:58:23;103062.81;;;4.13;100.00
10510;BME280;5303;53.266;10.410;2023-02-28T10:01:00;103062.44;;;4.21;87.03
10510;BME280;5303;53.266;10.410;2023-02-28T10:03:31;103049.66;;;4.42;87.36
10510;BME280;5303;53.266;10.410;2023-02-28T10:06:07;103055.88;;;4.44;85.91
10510;BME280;5303;53.266;10.410;2023-02-28T10:08:40;103056.97;;;4.57;84.24
10510;BME280;5303;53.266;10.410;2023-02-28T10:11:12;103059.13;;;4.68;81.86
10510;BME280;5303;53.266;10.410;2023-02-28T10:13:57;103057.19;;;4.87;83.07
10510;BME280;5303;53.266;10.410;2023-02-28T10:19:24;103060.31;;;4.80;84.26
10510;BME280;5303;53.266;10.410;2023-02-28T10:22:02;103066.50;;;4.82;85.74
10510;BME280;5303;53.266;10.410;2023-02-28T10:24:35;103052.69;;;4.88;86.91
10510;BME280;5303;53.266;10.410;2023-02-28T10:27:13;103057.03;;;4.90;86.10
10510;BME280;5303;53.266;10.410;2023-02-28T10:29:40;103054.09;;;4.95;85.11
10510;BME280;5303;53.266;10.410;2023-02-28T10:32:09;103055.78;;;4.98;84.97
10510;BME280;5303;53.266;10.410;2023-02-28T10:34:36;103054.44;;;4.89;89.64
10510;BME280;5303;53.266;10.410;2023-02-28T10:37:01;103051.31;;;4.97;90.90
10510;BME280;5303;53.266;10.410;2023-02-28T10:39:46;103046.88;;;4.96;94.14
10510;BME280;5303;53.266;10.410;2023-02-28T10:42:37;103036.88;;;4.98;92.27
10510;BME280;5303;53.266;10.410;2023-02-28T10:45:13;103038.59;;;4.99;90.76
10510;BME280;5303;53.266;10.410;2023-02-28T10:47:55;103042.81;;;5.04;92.44
10510;BME280;5303;53.266;10.410;2023-02-28T10:52:54;103035.09;;;5.14;85.32
10510;BME280;5303;53.266;10.410;2023-02-28T10:55:25;103034.69;;;5.37;82.79
10510;BME280;5303;53.266;10.410;2023-02-28T10:57:51;103026.94;;;5.47;81.54
10510;BME280;5303;53.266;10.410;2023-02-28T11:02:46;103024.91;;;5.35;85.60
10510;BME280;5303;53.266;10.410;2023-02-28T11:05:31;103027.28;;;5.41;85.77
10510;BME280;5303;53.266;10.410;2023-02-28T11:08:06;103028.06;;;5.43;85.86
10510;BME280;5303;53.266;10.410;2023-02-28T11:10:35;103028.66;;;5.48;83.21
10510;BME280;5303;53.266;10.410;2023-02-28T11:13:01;103029.34;;;5.52;83.17
10510;BME280;5303;53.266;10.410;2023-02-28T11:15:29;103034.06;;;5.48;80.87
10510;BME280;5303;53.266;10.410;2023-02-28T11:18:01;103028.59;;;5.50;77.39
10510;BME280;5303;53.266;10.410;2023-02-28T11:20:32;103023.91;;;5.69;77.49
10510;BME280;5303;53.266;10.410;2023-02-28T11:23:00;103020.31;;;5.69;77.39
10510;BME280;5303;53.266;10.410;2023-02-28T11:25:30;103023.78;;;5.87;80.91
10510;BME280;5303;53.266;10.410;2023-02-28T11:27:58;103017.53;;;6.02;80.28
10510;BME280;5303;53.266;10.410;2023-02-28T11:30:29;103023.53;;;5.91;79.66
10510;BME280;5303;53.266;10.410;2023-02-28T11:32:54;103017.09;;;5.94;81.15
10510;BME280;5303;53.266;10.410;2023-02-28T11:35:27;103020.84;;;5.91;77.05
10510;BME280;5303;53.266;10.410;2023-02-28T11:37:53;103019.16;;;5.89;76.94
10510;BME280;5303;53.266;10.410;2023-02-28T11:40:23;103019.34;;;5.86;78.26
10510;BME280;5303;53.266;10.410;2023-02-28T11:46:03;103012.09;;;5.86;75.90
10510;BME280;5303;53.266;10.410;2023-02-28T11:51:34;103008.41;;;5.87;71.91
10510;BME280;5303;53.266;10.410;2023-02-28T11:57:00;102997.72;;;5.86;73.48
10510;BME280;5303;53.266;10.410;2023-02-28T12:02:18;102992.66;;;5.95;73.07
10510;BME280;5303;53.266;10.410;2023-02-28T12:07:47;102987.41;;;5.92;73.68
10510;BME280;5303;53.266;10.410;2023-02-28T12:10:24;102990.47;;;6.02;71.92
10510;BME280;5303;53.266;10.410;2023-02-28T12:15:50;102983.03;;;6.05;75.73
10510;BME280;5303;53.266;10.410;2023-02-28T12:20:59;102976.19;;;6.30;69.68
10510;BME280;5303;53.266;10.410;2023-02-28T12:28:51;102968.63;;;6.35;66.97
10510;BME280;5303;53.266;10.410;2023-02-28T12:31:21;102970.34;;;6.22;65.93
10510;BME280;5303;53.266;10.410;2023-02-28T12:33:55;102963.13;;;6.37;66.80
10510;BME280;5303;53.266;10.410;2023-02-28T12:36:22;102960.81;;;6.45;67.01
10510;BME280;5303;53.266;10.410;2023-02-28T12:38:54;102958.03;;;6.46;65.73
10510;BME280;5303;53.266;10.410;2023-02-28T12:46:55;102945.84;;;6.39;71.20
10510;BME280;5303;53.266;10.410;2023-02-28T12:50:06;102939.41;;;6.26;68.16
10510;BME280;5303;53.266;10.410;2023-02-28T12:52:55;102941.38;;;6.38;68.00
10510;BME280;5303;53.266;10.410;2023-02-28T12:55:46;102937.13;;;6.34;69.66
10510;BME280;5303;53.266;10.410;2023-02-28T12:58:33;102929.50;;;6.41;68.05
10510;BME280;5303;53.266;10.410;2023-02-28T13:06:59;102914.88;;;6.29;68.28
10510;BME280;5303;53.266;10.410;2023-02-28T13:09:31;102905.88;;;6.28;68.08
10510;BME280;5303;53.266;10.410;2023-02-28T13:11:57;102910.16;;;6.33;67.78
10510;BME280;5303;53.266;10.410;2023-02-28T13:14:29;102898.84;;;6.40;67.81
10510;BME280;5303;53.266;10.410;2023-02-28T13:19:40;102896.25;;;6.53;68.36
10510;BME280;5303;53.266;10.410;2023-02-28T13:24:51;102896.84;;;6.58;67.63
10510;BME280;5303;53.266;10.410;2023-02-28T13:27:38;102906.84;;;6.27;67.41
10510;BME280;5303;53.266;10.410;2023-02-28T13:33:34;102903.59;;;6.80;66.66
10510;BME280;5303;53.266;10.410;2023-02-28T13:39:03;102915.09;;;6.54;66.52
10510;BME280;5303;53.266;10.410;2023-02-28T13:41:47;102912.38;;;6.54;66.33
10510;BME280;5303;53.266;10.410;2023-02-28T13:44:22;102916.75;;;6.57;66.23
10510;BME280;5303;53.266;10.410;2023-02-28T13:58:55;102900.22;;;6.76;66.49
10510;BME280;5303;53.266;10.410;2023-02-28T14:06:28;102896.06;;;6.70;66.86
10510;BME280;5303;53.266;10.410;2023-02-28T14:11:40;102895.00;;;6.73;67.53
10510;BME280;5303;53.266;10.410;2023-02-28T14:14:09;102896.53;;;6.48;67.11
10510;BME280;5303;53.266;10.410;2023-02-28T14:16:40;102899.63;;;6.57;66.58
10510;BME280;5303;53.266;10.410;2023-02-28T14:19:13;102891.91;;;6.79;66.84
10510;BME280;5303;53.266;10.410;2023-02-28T14:21:50;102895.84;;;6.73;65.66
10510;BME280;5303;53.266;10.410;2023-02-28T14:27:26;102888.03;;;6.83;66.67
10510;BME280;5303;53.266;10.410;2023-02-28T14:30:03;102898.28;;;6.78;65.93
10510;BME280;5303;53.266;10.410;2023-02-28T14:32:46;102884.34;;;6.70;65.49
10510;BME280;5303;53.266;10.410;2023-02-28T14:35:35;102898.94;;;6.67;63.66